createdAt,value
2018-09-21T00:00:39.202Z,6.60
2018-09-21T00:03:08.481Z,6.67
2018-09-21T00:05:36.865Z,4.97
2018-09-21T00:08:05.384Z,9.58
2018-09-21T00:10:34.125Z,4.90
2018-09-21T00:13:02.869Z,4.77
2018-09-21T00:15:31.488Z,7.00
2018-09-21T00:17:59.705Z,5.93
2018-09-21T00:20:28.000Z,5.73
2018-09-21T00:22:56.725Z,5.87
2018-09-21T00:25:24.918Z,6.83
2018-09-21T00:27:53.461Z,6.43
2018-09-21T00:30:21.785Z,7.30
2018-09-21T00:32:50.265Z,5.23
2018-09-21T00:35:19.021Z,11.37
2018-09-21T00:37:47.869Z,5.23
2018-09-21T00:40:16.374Z,7.03
2018-09-21T00:42:44.869Z,5.50
2018-09-21T00:45:13.029Z,6.60
2018-09-21T00:47:41.888Z,7.00
2018-09-21T00:50:10.809Z,6.37
2018-09-21T00:52:39.000Z,5.13
2018-09-21T00:55:07.496Z,6.70
2018-09-21T00:57:35.892Z,8.60
2018-09-21T01:00:04.365Z,6.10
2018-09-21T01:02:33.140Z,7.13
2018-09-21T01:05:01.485Z,5.33
2018-09-21T01:07:29.756Z,4.08
2018-09-21T01:09:58.249Z,4.53
2018-09-21T01:12:26.802Z,5.12
2018-09-21T01:14:55.157Z,6.27
2018-09-21T01:17:23.883Z,5.93
2018-09-21T01:19:52.054Z,5.00
2018-09-21T01:22:21.577Z,8.20
2018-09-21T01:24:49.810Z,4.27
2018-09-21T01:27:19.329Z,6.35
2018-09-21T01:29:47.668Z,7.00
2018-09-21T01:32:15.898Z,6.23
2018-09-21T01:34:44.881Z,9.10
2018-09-21T01:37:13.053Z,5.80
2018-09-21T01:39:41.223Z,4.37
2018-09-21T01:42:10.012Z,6.97
2018-09-21T01:44:38.544Z,10.90
2018-09-21T01:47:07.519Z,6.03
2018-09-21T01:49:35.944Z,6.45
2018-09-21T01:52:04.109Z,5.43
2018-09-21T01:54:32.245Z,7.90
2018-09-21T01:57:00.728Z,6.90
2018-09-21T01:59:28.894Z,6.20
2018-09-21T02:01:57.023Z,5.47
2018-09-21T02:04:31.041Z,5.50
2018-09-21T02:06:59.219Z,7.77
2018-09-21T02:09:28.065Z,7.15
2018-09-21T02:11:56.712Z,4.70
2018-09-21T02:14:24.949Z,6.80
2018-09-21T02:16:53.307Z,7.37
2018-09-21T02:19:22.194Z,5.95
2018-09-21T02:21:50.967Z,5.23
2018-09-21T02:24:19.864Z,4.67
2018-09-21T02:26:48.416Z,9.13
2018-09-21T02:29:17.020Z,7.10
2018-09-21T02:31:45.413Z,6.70
2018-09-21T02:34:13.880Z,5.50
2018-09-21T02:36:42.609Z,7.73
2018-09-21T02:39:11.163Z,6.33
2018-09-21T02:41:40.459Z,8.07
2018-09-21T02:44:09.179Z,5.30
2018-09-21T02:46:37.665Z,7.57
2018-09-21T02:49:06.560Z,6.07
2018-09-21T02:51:35.017Z,5.62
2018-09-21T02:54:03.733Z,9.13
2018-09-21T02:56:32.040Z,6.95
2018-09-21T02:59:00.549Z,6.90
2018-09-21T03:01:29.041Z,8.78
2018-09-21T03:03:57.450Z,7.40
2018-09-21T03:06:25.860Z,6.90
2018-09-21T03:08:54.029Z,10.40
2018-09-21T03:11:22.620Z,5.90
2018-09-21T03:13:50.962Z,7.30
2018-09-21T03:16:19.534Z,6.50
2018-09-21T03:18:48.646Z,10.30
2018-09-21T03:21:17.001Z,6.20
2018-09-21T03:23:45.494Z,9.90
2018-09-21T03:26:13.907Z,5.83
2018-09-21T03:28:42.042Z,6.10
2018-09-21T03:31:10.371Z,7.00
2018-09-21T03:33:38.869Z,8.57
2018-09-21T03:36:07.021Z,7.90
2018-09-21T03:38:35.173Z,8.00
2018-09-21T03:41:04.129Z,6.87
2018-09-21T03:43:32.885Z,10.73
2018-09-21T03:46:01.396Z,5.97
2018-09-21T03:48:29.585Z,6.90
2018-09-21T03:50:58.238Z,9.23
2018-09-21T03:53:26.693Z,7.90
2018-09-21T03:55:55.261Z,6.20
2018-09-21T03:58:23.856Z,6.67
2018-09-21T04:00:52.094Z,6.53
2018-09-21T04:03:20.358Z,6.07
2018-09-21T04:05:48.584Z,11.77
2018-09-21T04:08:16.980Z,5.20
2018-09-21T04:10:45.186Z,6.80
2018-09-21T04:13:13.313Z,5.93
2018-09-21T04:15:41.788Z,9.60
2018-09-21T04:18:10.066Z,11.13
2018-09-21T04:20:38.805Z,5.93
2018-09-21T04:23:07.452Z,7.37
2018-09-21T04:25:36.634Z,14.50
2018-09-21T04:28:05.405Z,6.03
2018-09-21T04:30:34.107Z,7.87
2018-09-21T04:33:02.612Z,7.27
2018-09-21T04:35:31.289Z,6.80
2018-09-21T04:37:59.904Z,6.62
2018-09-21T04:40:28.352Z,7.60
2018-09-21T04:42:56.496Z,7.83
2018-09-21T04:45:25.165Z,5.97
2018-09-21T04:47:53.289Z,7.47
2018-09-21T04:50:21.766Z,6.87
2018-09-21T04:52:50.125Z,7.30
2018-09-21T04:55:19.714Z,5.37
2018-09-21T04:57:48.143Z,6.13
2018-09-21T05:00:16.609Z,6.33
2018-09-21T05:02:45.081Z,6.43
2018-09-21T05:05:13.348Z,6.90
2018-09-21T05:07:41.472Z,9.80
2018-09-21T05:10:09.864Z,8.33
2018-09-21T05:12:38.474Z,6.43
2018-09-21T05:15:06.985Z,6.53
2018-09-21T05:17:35.170Z,6.30
2018-09-21T05:20:03.530Z,6.00
2018-09-21T05:22:31.679Z,7.25
2018-09-21T05:25:00.604Z,5.80
2018-09-21T05:27:28.843Z,5.93
2018-09-21T05:29:57.113Z,6.47
2018-09-21T05:32:25.469Z,5.00
2018-09-21T05:34:53.668Z,7.40
2018-09-21T05:37:22.593Z,6.63
2018-09-21T05:39:50.732Z,6.70
2018-09-21T05:42:19.881Z,8.70
2018-09-21T05:44:48.265Z,6.83
2018-09-21T05:47:16.402Z,7.30
2018-09-21T05:49:44.721Z,10.13
2018-09-21T05:52:13.309Z,5.70
2018-09-21T05:54:41.841Z,5.23
2018-09-21T05:57:10.569Z,6.43
2018-09-21T05:59:38.765Z,6.40
2018-09-21T06:02:07.558Z,8.93
2018-09-21T06:04:35.990Z,9.45
2018-09-21T06:07:04.381Z,9.13
2018-09-21T06:09:33.061Z,6.12
2018-09-21T06:12:05.917Z,5.53
2018-09-21T06:14:34.376Z,5.70
2018-09-21T06:17:02.916Z,5.87
2018-09-21T06:19:31.905Z,6.30
2018-09-21T06:22:00.313Z,6.67
2018-09-21T06:24:29.098Z,6.30
2018-09-21T06:26:57.655Z,5.10
2018-09-21T06:29:25.808Z,7.00
2018-09-21T06:31:53.991Z,5.17
2018-09-21T06:34:23.044Z,13.77
2018-09-21T06:36:51.792Z,6.80
2018-09-21T06:39:20.232Z,12.47
2018-09-21T06:41:48.904Z,8.37
2018-09-21T06:44:17.837Z,5.30
2018-09-21T06:46:46.468Z,8.03
2018-09-21T06:49:14.597Z,7.90
2018-09-21T06:51:43.337Z,10.33
2018-09-21T06:54:11.477Z,5.87
2018-09-21T06:56:39.648Z,6.03
2018-09-21T06:59:13.960Z,8.47
2018-09-21T07:01:42.676Z,7.43
2018-09-21T07:04:11.607Z,7.33
2018-09-21T07:06:39.820Z,8.13
2018-09-21T07:09:10.877Z,8.97
2018-09-21T07:11:39.524Z,6.10
2018-09-21T07:14:07.998Z,9.57
2018-09-21T07:16:36.649Z,5.87
2018-09-21T07:19:05.341Z,11.50
2018-09-21T07:21:33.673Z,5.27
2018-09-21T07:24:02.085Z,6.80
2018-09-21T07:26:30.928Z,5.67
2018-09-21T07:28:59.072Z,11.10
2018-09-21T07:31:27.738Z,6.22
2018-09-21T07:33:56.413Z,6.15
2018-09-21T07:36:25.664Z,6.03
2018-09-21T07:38:53.859Z,5.73
2018-09-21T07:41:22.385Z,6.13
2018-09-21T07:43:50.604Z,7.47
2018-09-21T07:46:20.260Z,6.33
2018-09-21T07:48:48.844Z,8.23
2018-09-21T07:51:18.052Z,8.00
2018-09-21T07:53:46.541Z,15.40
2018-09-21T07:56:14.719Z,9.50
2018-09-21T07:58:42.838Z,5.60
2018-09-21T08:01:11.401Z,9.90
2018-09-21T08:03:39.981Z,7.23
2018-09-21T08:06:08.464Z,6.13
2018-09-21T08:08:37.401Z,13.10
2018-09-21T08:11:05.921Z,11.93
2018-09-21T08:13:34.601Z,6.67
2018-09-21T08:16:05.515Z,6.00
2018-09-21T08:18:34.288Z,10.80
2018-09-21T08:21:02.589Z,10.20
2018-09-21T08:23:31.936Z,8.63
2018-09-21T08:26:00.081Z,12.63
2018-09-21T08:28:28.261Z,12.70
2018-09-21T08:30:57.004Z,8.73
2018-09-21T08:33:25.596Z,7.58
2018-09-21T08:35:53.900Z,6.90
2018-09-21T08:38:22.381Z,7.27
2018-09-21T08:40:50.781Z,8.47
2018-09-21T08:43:20.462Z,8.20
2018-09-21T08:45:48.762Z,14.50
2018-09-21T08:48:17.480Z,7.43
2018-09-21T08:50:45.968Z,6.23
2018-09-21T08:53:14.457Z,3.90
2018-09-21T08:55:43.089Z,4.47
2018-09-21T08:58:11.570Z,7.87
2018-09-21T09:00:40.119Z,7.20
2018-09-21T09:03:08.405Z,7.40
2018-09-21T09:05:37.289Z,8.50
2018-09-21T09:08:07.391Z,7.60
2018-09-21T09:10:36.363Z,5.33
2018-09-21T09:13:04.848Z,6.33
2018-09-21T09:15:35.125Z,6.63
2018-09-21T09:18:03.758Z,4.30
2018-09-21T09:20:32.461Z,5.90
2018-09-21T09:23:00.595Z,3.37
2018-09-21T09:25:29.551Z,12.15
2018-09-21T09:28:00.804Z,7.73
2018-09-21T09:30:29.570Z,3.90
2018-09-21T09:32:58.278Z,5.77
2018-09-21T09:35:27.045Z,5.97
2018-09-21T09:37:58.906Z,10.83
2018-09-21T09:40:32.814Z,6.92
2018-09-21T09:43:04.526Z,5.57
2018-09-21T09:45:33.324Z,3.90
2018-09-21T09:48:02.142Z,5.07
2018-09-21T09:50:31.372Z,7.00
2018-09-21T09:52:59.522Z,8.90
2018-09-21T09:55:28.269Z,8.40
2018-09-21T09:57:56.433Z,6.33
2018-09-21T10:00:31.816Z,3.12
2018-09-21T10:02:59.973Z,4.87
2018-09-21T10:05:34.624Z,2.22
2018-09-21T10:08:07.040Z,3.07
2018-09-21T10:10:35.645Z,3.83
2018-09-21T10:13:04.349Z,5.30
2018-09-21T10:15:32.817Z,5.50
2018-09-21T10:18:01.513Z,3.47
2018-09-21T10:20:30.201Z,4.97
2018-09-21T10:22:58.521Z,6.37
2018-09-21T10:25:27.029Z,3.92
2018-09-21T10:27:55.404Z,5.57
2018-09-21T10:30:24.349Z,5.13
2018-09-21T10:32:53.213Z,3.70
2018-09-21T10:35:21.887Z,5.37
2018-09-21T10:37:50.145Z,3.50
2018-09-21T10:40:18.738Z,3.20
2018-09-21T10:42:47.777Z,5.20
2018-09-21T10:45:16.577Z,4.70
2018-09-21T10:47:45.125Z,9.30
2018-09-21T10:50:13.711Z,8.60
2018-09-21T10:52:42.561Z,8.48
2018-09-21T10:55:11.093Z,5.97
2018-09-21T10:57:39.270Z,6.23
2018-09-21T11:00:08.681Z,8.67
2018-09-21T11:02:37.676Z,8.60
2018-09-21T11:05:06.249Z,4.70
2018-09-21T11:07:35.352Z,6.13
2018-09-21T11:10:03.816Z,9.70
2018-09-21T11:12:33.340Z,5.27
2018-09-21T11:15:02.082Z,5.55
2018-09-21T11:17:30.540Z,7.62
2018-09-21T11:19:59.022Z,6.67
2018-09-21T11:22:27.484Z,6.17
2018-09-21T11:24:55.981Z,9.70
2018-09-21T11:27:24.545Z,8.30
2018-09-21T11:29:53.040Z,9.50
2018-09-21T11:32:22.113Z,5.17
2018-09-21T11:34:50.860Z,7.20
2018-09-21T11:37:19.444Z,7.20
2018-09-21T11:39:49.985Z,8.00
2018-09-21T11:42:18.144Z,4.60
2018-09-21T11:44:46.728Z,6.60
2018-09-21T11:47:14.987Z,11.30
2018-09-21T11:49:43.356Z,7.93
2018-09-21T11:52:12.016Z,9.70
2018-09-21T11:54:40.253Z,9.17
2018-09-21T11:57:08.936Z,10.30
2018-09-21T11:59:37.793Z,7.25
2018-09-21T12:02:06.726Z,6.15
2018-09-21T12:04:35.148Z,7.00
2018-09-21T12:07:03.329Z,14.73
2018-09-21T12:09:32.036Z,7.70
2018-09-21T12:12:00.389Z,12.60
2018-09-21T12:14:28.901Z,11.25
2018-09-21T12:16:57.457Z,8.47
2018-09-21T12:19:26.101Z,5.30
2018-09-21T12:21:54.652Z,6.70
2018-09-21T12:24:23.581Z,6.12
2018-09-21T12:26:52.037Z,5.20
2018-09-21T12:29:21.037Z,8.43
2018-09-21T12:31:50.184Z,8.27
2018-09-21T12:34:18.392Z,8.47
2018-09-21T12:36:47.405Z,5.97
2018-09-21T12:39:15.893Z,7.17
2018-09-21T12:41:44.765Z,6.67
2018-09-21T12:44:14.775Z,8.37
2018-09-21T12:46:43.569Z,7.70
2018-09-21T12:49:11.716Z,7.83
2018-09-21T12:51:40.985Z,8.63
2018-09-21T12:54:09.829Z,7.63
2018-09-21T12:56:38.029Z,5.50
2018-09-21T12:59:12.930Z,7.40
2018-09-21T13:01:41.472Z,6.57
2018-09-21T13:04:10.164Z,13.07
2018-09-21T13:06:38.614Z,8.50
2018-09-21T13:09:07.712Z,12.37
2018-09-21T13:11:36.957Z,7.12
2018-09-21T13:14:05.837Z,5.65
2018-09-21T13:16:34.893Z,5.75
2018-09-21T13:19:03.684Z,6.85
2018-09-21T13:21:32.413Z,9.93
2018-09-21T13:24:00.717Z,9.27
2018-09-21T13:26:28.865Z,10.63
2018-09-21T13:28:57.692Z,7.43
2018-09-21T13:31:26.109Z,7.43
2018-09-21T13:33:54.533Z,4.87
2018-09-21T13:36:25.797Z,6.60
2018-09-21T13:38:54.480Z,5.60
2018-09-21T13:41:23.083Z,4.80
2018-09-21T13:43:52.240Z,3.30
2018-09-21T13:46:21.053Z,4.00
2018-09-21T13:48:49.816Z,3.80
2018-09-21T13:51:18.305Z,5.10
2018-09-21T13:53:46.813Z,4.73
2018-09-21T13:56:14.949Z,4.53
2018-09-21T13:58:43.422Z,4.00
2018-09-21T14:01:11.752Z,5.30
2018-09-21T14:03:40.226Z,5.83
2018-09-21T14:06:08.973Z,1.47
2018-09-21T14:08:37.369Z,3.50
2018-09-21T14:11:05.845Z,2.90
2018-09-21T14:13:34.312Z,2.00
2018-09-21T14:16:03.016Z,2.47
2018-09-21T14:18:31.607Z,2.87
2018-09-21T14:21:00.127Z,3.43
2018-09-21T14:23:28.860Z,3.60
2018-09-21T14:25:57.549Z,6.07
2018-09-21T14:28:26.276Z,1.70
2018-09-21T14:30:55.043Z,1.50
2018-09-21T14:33:23.191Z,1.70
2018-09-21T14:35:52.325Z,1.97
2018-09-21T14:38:21.037Z,1.47
2018-09-21T14:40:49.498Z,3.70
2018-09-21T14:43:17.968Z,1.40
2018-09-21T14:45:46.091Z,1.07
2018-09-21T14:48:14.553Z,1.90
2018-09-21T14:50:43.154Z,2.87
2018-09-21T14:53:12.072Z,3.55
2018-09-21T14:55:40.305Z,5.10
2018-09-21T14:58:09.046Z,2.93
2018-09-21T15:00:38.121Z,7.13
2018-09-21T15:03:06.638Z,2.87
2018-09-21T15:05:35.281Z,2.70
2018-09-21T15:08:03.993Z,2.93
2018-09-21T15:10:32.972Z,4.93
2018-09-21T15:13:02.024Z,1.20
2018-09-21T15:15:30.548Z,2.57
2018-09-21T15:17:59.213Z,1.57
2018-09-21T15:20:27.381Z,2.42
2018-09-21T15:22:56.141Z,2.55
2018-09-21T15:25:24.715Z,4.57
2018-09-21T15:27:53.114Z,2.97
2018-09-21T15:30:21.377Z,1.20
2018-09-21T15:32:49.811Z,2.30
2018-09-21T15:35:18.328Z,2.30
2018-09-21T15:37:46.528Z,2.97
2018-09-21T15:40:15.105Z,4.40
2018-09-21T15:42:43.357Z,1.00
2018-09-21T15:45:11.954Z,1.93
2018-09-21T15:47:40.116Z,5.17
2018-09-21T15:50:08.544Z,0.83
2018-09-21T15:52:37.351Z,2.20
2018-09-21T15:55:06.305Z,1.37
2018-09-21T15:57:34.952Z,3.20
2018-09-21T16:00:03.556Z,3.03
2018-09-21T16:02:32.712Z,1.37
2018-09-21T16:05:01.401Z,2.30
2018-09-21T16:07:30.237Z,4.22
2018-09-21T16:09:59.386Z,1.53
2018-09-21T16:12:29.265Z,3.50
2018-09-21T16:14:57.415Z,2.30
2018-09-21T16:17:26.354Z,4.50
2018-09-21T16:19:54.590Z,1.67
2018-09-21T16:22:23.048Z,1.43
2018-09-21T16:24:52.000Z,1.80
2018-09-21T16:27:21.649Z,0.80
2018-09-21T16:29:50.342Z,1.47
2018-09-21T16:32:18.748Z,5.23
2018-09-21T16:34:47.118Z,4.30
2018-09-21T16:37:15.633Z,2.30
2018-09-21T16:39:44.056Z,2.90
2018-09-21T16:42:12.561Z,1.00
2018-09-21T16:44:45.437Z,1.90
2018-09-21T16:47:13.648Z,4.00
2018-09-21T16:49:42.072Z,1.53
2018-09-21T16:52:10.553Z,1.93
2018-09-21T16:54:39.302Z,1.50
2018-09-21T16:57:08.499Z,7.42
2018-09-21T16:59:37.715Z,2.58
2018-09-21T17:02:06.177Z,3.40
2018-09-21T17:04:34.796Z,5.83
2018-09-21T17:07:03.757Z,2.70
2018-09-21T17:09:32.180Z,3.65
2018-09-21T17:12:03.552Z,2.63
2018-09-21T17:14:34.621Z,2.57
2018-09-21T17:17:02.836Z,1.53
2018-09-21T17:19:31.125Z,3.67
2018-09-21T17:21:59.572Z,3.00
2018-09-21T17:24:28.192Z,2.25
2018-09-21T17:26:57.019Z,5.03
2018-09-21T17:29:25.744Z,3.33
2018-09-21T17:31:54.208Z,3.63
2018-09-21T17:34:22.860Z,4.37
2018-09-21T17:36:51.414Z,3.00
2018-09-21T17:39:19.734Z,1.07
2018-09-21T17:41:48.631Z,3.17
2018-09-21T17:44:17.389Z,1.87
2018-09-21T17:46:45.840Z,1.70
2018-09-21T17:49:14.133Z,2.83
2018-09-21T17:51:42.577Z,2.40
2018-09-21T17:54:10.704Z,1.00
2018-09-21T17:56:39.453Z,2.75
2018-09-21T17:59:07.625Z,5.70
2018-09-21T18:01:36.223Z,2.80
2018-09-21T18:04:04.601Z,2.83
2018-09-21T18:06:33.217Z,1.93
2018-09-21T18:09:01.779Z,1.60
2018-09-21T18:11:36.620Z,1.67
2018-09-21T18:14:05.397Z,5.15
2018-09-21T18:16:33.908Z,2.30
2018-09-21T18:19:02.892Z,1.00
2018-09-21T18:21:31.479Z,3.05
2018-09-21T18:24:00.098Z,5.47
2018-09-21T18:28:50.464Z,3.40
2018-09-21T18:31:18.952Z,1.70
2018-09-21T18:33:48.107Z,3.23
2018-09-21T18:36:16.339Z,1.53
2018-09-21T18:38:45.077Z,3.00
2018-09-21T18:41:13.216Z,2.10
2018-09-21T18:43:41.697Z,2.30
2018-09-21T18:46:10.400Z,2.10
2018-09-21T18:48:39.176Z,2.23
2018-09-21T18:51:07.685Z,2.30
2018-09-21T18:53:35.835Z,2.40
2018-09-21T18:56:04.591Z,3.60
2018-09-21T18:58:33.788Z,0.90
2018-09-21T19:01:01.921Z,1.80
2018-09-21T19:03:30.672Z,0.60
2018-09-21T19:05:59.261Z,0.85
2018-09-21T19:08:27.893Z,1.30
2018-09-21T19:10:56.559Z,1.37
2018-09-21T19:13:25.876Z,0.93
2018-09-21T19:15:53.980Z,0.70
2018-09-21T19:18:23.081Z,0.50
2018-09-21T19:20:51.897Z,2.30
2018-09-21T19:23:22.046Z,0.40
2018-09-21T19:25:50.333Z,3.10
2018-09-21T19:28:18.901Z,2.70
2018-09-21T19:30:47.505Z,0.78
2018-09-21T19:33:15.991Z,0.70
2018-09-21T19:35:44.779Z,1.10
2018-09-21T19:38:13.512Z,1.17
2018-09-21T19:40:41.649Z,1.77
2018-09-21T19:43:09.835Z,2.30
2018-09-21T19:45:38.717Z,1.00
2018-09-21T19:48:07.404Z,2.25
2018-09-21T19:50:35.779Z,2.60
2018-09-21T19:53:10.738Z,0.60
2018-09-21T19:55:39.160Z,1.75
2018-09-21T19:58:08.437Z,0.70
2018-09-21T20:00:37.221Z,0.60
2018-09-21T20:03:06.032Z,1.37
2018-09-21T20:05:34.714Z,2.35
2018-09-21T20:08:03.173Z,0.70
2018-09-21T20:10:32.144Z,0.82
2018-09-21T20:13:00.581Z,0.83
2018-09-21T20:15:28.873Z,4.33
2018-09-21T20:17:57.344Z,1.67
2018-09-21T20:20:25.877Z,2.20
2018-09-21T20:22:54.025Z,1.30
2018-09-21T20:25:22.216Z,0.53
2018-09-21T20:27:50.847Z,0.70
2018-09-21T20:30:25.737Z,1.10
2018-09-21T20:32:59.674Z,0.97
2018-09-21T20:35:28.068Z,1.65
2018-09-21T20:37:56.689Z,0.90
2018-09-21T20:40:25.168Z,2.07
2018-09-21T20:42:53.620Z,4.22
2018-09-21T20:45:22.116Z,1.70
2018-09-21T20:47:50.961Z,1.17
2018-09-21T20:50:19.464Z,9.63
2018-09-21T20:52:48.100Z,2.67
2018-09-21T20:55:16.261Z,2.00
2018-09-21T20:57:44.732Z,2.80
2018-09-21T21:00:13.235Z,1.20
2018-09-21T21:02:42.021Z,2.60
2018-09-21T21:05:10.547Z,2.13
2018-09-21T21:07:39.448Z,2.30
2018-09-21T21:10:08.157Z,1.43
2018-09-21T21:12:41.110Z,1.45
2018-09-21T21:15:09.517Z,3.20
2018-09-21T21:17:38.363Z,2.10
2018-09-21T21:20:06.852Z,1.83
2018-09-21T21:22:35.189Z,1.30
2018-09-21T21:25:03.421Z,1.40
2018-09-21T21:27:31.809Z,2.23
2018-09-21T21:29:59.964Z,2.93
2018-09-21T21:32:28.420Z,1.23
2018-09-21T21:34:56.687Z,1.10
2018-09-21T21:37:25.093Z,1.53
2018-09-21T21:39:53.260Z,1.63
2018-09-21T21:42:22.017Z,3.33
2018-09-21T21:44:50.198Z,4.93
2018-09-21T21:47:18.662Z,2.10
2018-09-21T21:49:47.352Z,2.73
2018-09-21T21:52:16.328Z,2.60
2018-09-21T21:54:45.145Z,1.30
2018-09-21T21:57:13.646Z,1.57
2018-09-21T21:59:42.510Z,3.47
2018-09-21T22:02:13.093Z,2.43
2018-09-21T22:04:42.871Z,1.80
2018-09-21T22:07:12.156Z,2.53
2018-09-21T22:09:40.325Z,3.80
2018-09-21T22:12:14.592Z,3.50
2018-09-21T22:14:43.100Z,6.83
2018-09-21T22:17:11.453Z,3.03
2018-09-21T22:19:39.963Z,8.63
2018-09-21T22:22:08.493Z,3.13
2018-09-21T22:24:37.274Z,5.17
2018-09-21T22:27:05.761Z,1.72
2018-09-21T22:29:34.343Z,1.87
2018-09-21T22:32:02.993Z,2.63
2018-09-21T22:34:31.643Z,4.17
2018-09-21T22:37:00.193Z,2.87
2018-09-21T22:39:29.557Z,3.43
2018-09-21T22:41:58.338Z,4.17
2018-09-21T22:44:26.505Z,5.70
2018-09-21T22:46:54.993Z,1.77
2018-09-21T22:49:24.163Z,1.37
2018-09-21T22:51:52.673Z,1.30
2018-09-21T22:54:22.901Z,1.85
2018-09-21T22:56:51.269Z,1.57
2018-09-21T22:59:20.320Z,3.40
2018-09-21T23:01:49.005Z,5.08
2018-09-21T23:04:17.189Z,6.70
2018-09-21T23:06:45.717Z,3.37
2018-09-21T23:09:13.997Z,3.87
2018-09-21T23:11:43.149Z,3.73
2018-09-21T23:14:12.032Z,3.70
2018-09-21T23:16:40.905Z,5.70
2018-09-21T23:19:09.905Z,3.80
2018-09-21T23:21:38.125Z,3.70
2018-09-21T23:24:06.528Z,5.17
2018-09-21T23:26:35.667Z,7.25
2018-09-21T23:29:04.481Z,5.23
2018-09-21T23:31:33.176Z,7.70
2018-09-21T23:34:01.560Z,4.33
2018-09-21T23:36:41.879Z,3.72
2018-09-21T23:39:10.927Z,2.83
2018-09-21T23:41:40.320Z,6.07
2018-09-21T23:44:09.380Z,3.10
2018-09-21T23:46:37.953Z,1.73
2018-09-21T23:49:06.548Z,6.73
2018-09-21T23:51:37.408Z,2.42
2018-09-21T23:54:06.185Z,2.70
2018-09-21T23:56:35.121Z,2.63
2018-09-21T23:59:05.117Z,2.20
